createdAt,value
2019-05-12T00:00:39.067Z,95401.00
2019-05-12T00:03:08.701Z,95409.00
2019-05-12T00:05:39.053Z,95411.00
2019-05-12T00:08:09.049Z,95406.00
2019-05-12T00:10:39.165Z,95418.00
2019-05-12T00:13:09.283Z,95420.00
2019-05-12T00:15:39.440Z,95409.00
2019-05-12T00:18:09.495Z,95418.00
2019-05-12T00:20:39.575Z,95420.00
2019-05-12T00:23:24.068Z,95409.00
2019-05-12T00:25:41.421Z,95425.00
2019-05-12T00:28:11.410Z,95423.00
2019-05-12T00:30:45.436Z,95427.00
2019-05-12T00:33:17.839Z,95433.00
2019-05-12T00:35:48.306Z,95429.00
2019-05-12T00:38:18.438Z,95431.00
2019-05-12T00:40:48.438Z,95425.00
2019-05-12T00:43:18.951Z,95435.00
2019-05-12T00:45:49.164Z,95434.00
2019-05-12T00:48:19.294Z,95430.00
2019-05-12T00:50:49.312Z,95428.00
2019-05-12T00:53:19.463Z,95423.00
2019-05-12T00:55:49.383Z,95431.00
2019-05-12T00:58:19.808Z,95429.00
2019-05-12T01:00:49.854Z,95418.00
2019-05-12T01:03:19.838Z,95426.00
2019-05-12T01:05:49.835Z,95426.00
2019-05-12T01:08:19.813Z,95437.00
2019-05-12T01:10:49.832Z,95433.00
2019-05-12T01:13:19.850Z,95440.00
2019-05-12T01:15:50.036Z,95434.00
2019-05-12T01:18:20.060Z,95439.00
2019-05-12T01:20:50.045Z,95448.00
2019-05-12T01:23:23.312Z,95448.00
2019-05-12T01:25:51.816Z,95462.00
2019-05-12T01:28:21.865Z,95469.00
2019-05-12T01:30:52.069Z,95459.00
2019-05-12T01:33:22.029Z,95473.00
2019-05-12T01:35:52.041Z,95471.00
2019-05-12T01:38:22.027Z,95476.00
2019-05-12T01:40:52.042Z,95485.00
2019-05-12T01:43:21.980Z,95483.00
2019-05-12T01:45:51.934Z,95494.00
2019-05-12T01:48:21.851Z,95513.00
2019-05-12T01:50:51.871Z,95500.00
2019-05-12T01:53:21.871Z,95517.00
2019-05-12T01:55:51.794Z,95502.00
2019-05-12T01:58:21.794Z,95517.00
2019-05-12T02:00:51.861Z,95521.00
2019-05-12T02:03:21.852Z,95523.00
2019-05-12T02:05:53.987Z,95525.00
2019-05-12T02:08:30.052Z,95520.00
2019-05-12T02:11:18.510Z,95520.00
2019-05-12T02:13:48.751Z,95522.00
2019-05-12T02:16:19.060Z,95521.00
2019-05-12T02:18:49.215Z,95531.00
2019-05-12T02:21:19.307Z,95532.00
2019-05-12T02:23:49.250Z,95533.00
2019-05-12T02:26:19.339Z,95539.00
2019-05-12T02:28:49.280Z,95540.00
2019-05-12T02:31:20.717Z,95539.00
2019-05-12T02:33:54.875Z,95550.00
2019-05-12T02:36:25.848Z,95542.00
2019-05-12T02:38:56.012Z,95549.00
2019-05-12T02:41:26.420Z,95563.00
2019-05-12T02:43:56.551Z,95564.00
2019-05-12T02:46:26.726Z,95562.00
2019-05-12T02:48:56.626Z,95575.00
2019-05-12T02:51:26.953Z,95582.00
2019-05-12T02:53:57.830Z,95582.00
2019-05-12T02:56:31.165Z,95592.00
2019-05-12T02:59:05.173Z,95606.00
2019-05-12T03:01:37.594Z,95603.00
2019-05-12T03:04:09.433Z,95597.00
2019-05-12T03:06:44.621Z,95596.00
2019-05-12T03:09:15.160Z,95614.00
2019-05-12T03:11:46.994Z,95622.00
2019-05-12T03:14:16.904Z,95621.00
2019-05-12T03:16:46.820Z,95617.00
2019-05-12T03:19:17.390Z,95627.00
2019-05-12T03:21:47.472Z,95632.00
2019-05-12T03:24:17.849Z,95637.00
2019-05-12T03:26:47.973Z,95634.00
2019-05-12T03:29:17.954Z,95639.00
2019-05-12T03:31:49.309Z,95638.00
2019-05-12T03:34:20.611Z,95650.00
2019-05-12T03:36:52.358Z,95661.00
2019-05-12T03:39:25.065Z,95667.00
2019-05-12T03:41:54.669Z,95669.00
2019-05-12T03:44:25.335Z,95670.00
2019-05-12T03:46:56.420Z,95681.00
2019-05-12T03:49:26.323Z,95683.00
2019-05-12T03:51:56.247Z,95679.00
2019-05-12T03:54:26.143Z,95696.00
2019-05-12T03:56:56.082Z,95706.00
2019-05-12T03:59:25.973Z,95697.00
2019-05-12T04:01:55.908Z,95714.00
2019-05-12T04:04:25.848Z,95720.00
2019-05-12T04:06:55.773Z,95730.00
2019-05-12T04:09:25.774Z,95726.00
2019-05-12T04:11:55.684Z,95736.00
2019-05-12T04:14:25.625Z,95734.00
2019-05-12T04:16:55.632Z,95751.00
2019-05-12T04:19:25.560Z,95749.00
2019-05-12T04:21:55.489Z,95745.00
2019-05-12T04:24:25.468Z,95769.00
2019-05-12T04:26:55.460Z,95767.00
2019-05-12T04:29:25.458Z,95775.00
2019-05-12T04:31:55.527Z,95789.00
2019-05-12T04:34:25.440Z,95806.00
2019-05-12T04:36:55.648Z,95792.00
2019-05-12T04:39:25.660Z,95802.00
2019-05-12T04:41:55.620Z,95818.00
2019-05-12T04:44:25.515Z,95810.00
2019-05-12T04:46:55.682Z,95811.00
2019-05-12T04:49:25.648Z,95825.00
2019-05-12T04:51:55.656Z,95829.00
2019-05-12T04:54:25.626Z,95833.00
2019-05-12T04:56:55.564Z,95850.00
2019-05-12T04:59:25.710Z,95853.00
2019-05-12T05:01:55.685Z,95860.00
2019-05-12T05:04:25.593Z,95867.00
2019-05-12T05:06:55.583Z,95878.00
2019-05-12T05:09:25.480Z,95884.00
2019-05-12T05:11:55.481Z,95878.00
2019-05-12T05:14:25.503Z,95893.00
2019-05-12T05:16:55.426Z,95898.00
2019-05-12T05:19:25.563Z,95906.00
2019-05-12T05:21:55.507Z,95903.00
2019-05-12T05:24:25.420Z,95915.00
2019-05-12T05:26:55.329Z,95910.00
2019-05-12T05:29:25.443Z,95918.00
2019-05-12T05:31:55.459Z,95930.00
2019-05-12T05:34:25.357Z,95944.00
2019-05-12T05:36:57.232Z,95940.00
2019-05-12T05:39:27.097Z,95942.00
2019-05-12T05:41:57.108Z,95946.00
2019-05-12T05:44:29.179Z,95953.00
2019-05-12T05:46:58.776Z,95959.00
2019-05-12T05:49:28.850Z,95951.00
2019-05-12T05:51:58.838Z,95972.00
2019-05-12T05:54:31.379Z,95966.00
2019-05-12T05:57:02.941Z,95978.00
2019-05-12T05:59:36.584Z,95986.00
2019-05-12T06:02:04.895Z,95988.00
2019-05-12T06:04:39.227Z,95981.00
2019-05-12T06:07:06.875Z,96006.00
2019-05-12T06:09:36.890Z,96014.00
2019-05-12T06:12:09.695Z,96002.00
2019-05-12T06:14:40.827Z,96011.00
2019-05-12T06:17:10.591Z,96027.00
2019-05-12T06:19:40.738Z,96015.00
2019-05-12T06:22:15.061Z,96024.00
2019-05-12T06:24:44.145Z,96037.00
2019-05-12T06:27:20.314Z,96038.00
2019-05-12T06:29:46.066Z,96038.00
2019-05-12T06:32:16.060Z,96053.00
2019-05-12T06:34:46.166Z,96049.00
2019-05-12T06:37:17.125Z,96070.00
2019-05-12T06:39:50.961Z,96057.00
2019-05-12T06:42:19.062Z,96060.00
2019-05-12T06:44:53.588Z,96071.00
2019-05-12T06:47:20.780Z,96047.00
2019-05-12T06:49:56.443Z,96060.00
2019-05-12T06:52:23.667Z,96067.00
2019-05-12T06:54:56.636Z,96065.00
2019-05-12T06:57:28.742Z,96069.00
2019-05-12T06:59:57.581Z,96072.00
2019-05-12T07:02:30.357Z,96076.00
2019-05-12T07:04:59.653Z,96097.00
2019-05-12T07:07:33.429Z,96094.00
2019-05-12T07:10:07.923Z,96102.00
2019-05-12T07:12:43.426Z,96108.00
2019-05-12T07:15:06.684Z,96105.00
2019-05-12T07:17:50.673Z,96112.00
2019-05-12T07:20:20.748Z,96116.00
2019-05-12T07:22:50.658Z,96132.00
2019-05-12T07:25:22.862Z,96107.00
2019-05-12T07:28:00.048Z,96136.00
2019-05-12T07:30:34.999Z,96128.00
2019-05-12T07:33:04.727Z,96135.00
2019-05-12T07:35:35.841Z,96132.00
2019-05-12T07:38:05.993Z,96135.00
2019-05-12T07:40:37.771Z,96143.00
2019-05-12T07:43:16.181Z,96146.00
2019-05-12T07:45:46.523Z,96134.00
2019-05-12T07:48:16.637Z,96146.00
2019-05-12T07:50:50.346Z,96137.00
2019-05-12T07:53:18.357Z,96145.00
2019-05-12T07:55:49.584Z,96158.00
2019-05-12T07:58:19.775Z,96162.00
2019-05-12T08:00:53.912Z,96158.00
2019-05-12T08:03:23.726Z,96162.00
2019-05-12T08:05:57.351Z,96164.00
2019-05-12T08:08:24.788Z,96166.00
2019-05-12T08:10:55.937Z,96173.00
2019-05-12T08:13:26.029Z,96171.00
2019-05-12T08:15:56.526Z,96172.00
2019-05-12T08:18:30.412Z,96167.00
2019-05-12T08:21:00.143Z,96182.00
2019-05-12T08:23:30.310Z,96186.00
2019-05-12T08:26:05.335Z,96168.00
2019-05-12T08:28:35.759Z,96167.00
2019-05-12T08:31:04.028Z,96173.00
2019-05-12T08:33:34.867Z,96186.00
2019-05-12T08:36:11.398Z,96194.00
2019-05-12T08:38:36.664Z,96196.00
2019-05-12T08:41:06.732Z,96206.00
2019-05-12T08:43:40.506Z,96201.00
2019-05-12T08:46:12.126Z,96219.00
2019-05-12T08:48:40.184Z,96217.00
2019-05-12T08:51:14.102Z,96220.00
2019-05-12T08:53:43.949Z,96232.00
2019-05-12T08:56:19.145Z,96234.00
2019-05-12T08:58:50.603Z,96244.00
2019-05-12T09:01:20.340Z,96242.00
2019-05-12T09:03:49.084Z,96246.00
2019-05-12T09:06:20.044Z,96245.00
2019-05-12T09:08:50.307Z,96252.00
2019-05-12T09:11:20.390Z,96259.00
2019-05-12T09:13:52.808Z,96273.00
2019-05-12T09:16:24.247Z,96276.00
2019-05-12T09:18:55.336Z,96266.00
2019-05-12T09:21:31.593Z,96284.00
2019-05-12T09:23:57.173Z,96287.00
2019-05-12T09:26:28.505Z,96275.00
2019-05-12T09:28:58.905Z,96286.00
2019-05-12T09:31:29.615Z,96279.00
2019-05-12T09:34:05.973Z,96301.00
2019-05-12T09:36:33.636Z,96302.00
2019-05-12T09:39:05.790Z,96305.00
2019-05-12T09:41:42.644Z,96304.00
2019-05-12T09:44:07.321Z,96304.00
2019-05-12T09:46:37.807Z,96309.00
2019-05-12T09:49:07.931Z,96308.00
2019-05-12T09:51:42.668Z,96305.00
2019-05-12T09:54:10.052Z,96314.00
2019-05-12T09:56:41.294Z,96311.00
2019-05-12T09:59:20.804Z,96316.00
2019-05-12T10:01:45.939Z,96313.00
2019-05-12T10:04:19.181Z,96321.00
2019-05-12T10:06:46.937Z,96320.00
2019-05-12T10:09:19.842Z,96321.00
2019-05-12T10:11:51.912Z,96324.00
2019-05-12T10:14:20.372Z,96328.00
2019-05-12T10:16:50.371Z,96320.00
2019-05-12T10:19:20.284Z,96329.00
2019-05-12T10:21:55.187Z,96335.00
2019-05-12T10:24:22.013Z,96335.00
2019-05-12T10:26:54.142Z,96332.00
2019-05-12T10:29:24.401Z,96340.00
2019-05-12T10:31:54.592Z,96348.00
2019-05-12T10:34:29.340Z,96331.00
2019-05-12T10:36:56.234Z,96338.00
2019-05-12T10:39:26.157Z,96343.00
2019-05-12T10:41:56.277Z,96352.00
2019-05-12T10:44:30.086Z,96340.00
2019-05-12T10:47:00.037Z,96347.00
2019-05-12T10:49:30.101Z,96349.00
2019-05-12T10:52:00.204Z,96355.00
2019-05-12T10:54:30.196Z,96358.00
2019-05-12T10:57:00.191Z,96367.00
2019-05-12T10:59:33.351Z,96363.00
2019-05-12T11:02:03.533Z,96362.00
2019-05-12T11:04:39.044Z,96367.00
2019-05-12T11:07:05.654Z,96364.00
2019-05-12T11:09:35.657Z,96363.00
2019-05-12T11:12:06.046Z,96358.00
2019-05-12T11:14:36.177Z,96358.00
2019-05-12T11:17:09.472Z,96371.00
2019-05-12T11:19:47.246Z,96370.00
2019-05-12T11:22:13.905Z,96369.00
2019-05-12T11:24:44.539Z,96373.00
2019-05-12T11:27:14.698Z,96374.00
2019-05-12T11:29:49.305Z,96374.00
2019-05-12T11:32:17.867Z,96387.00
2019-05-12T11:34:47.871Z,96392.00
2019-05-12T11:37:17.793Z,96391.00
2019-05-12T11:39:47.708Z,96393.00
2019-05-12T11:42:17.897Z,96398.00
2019-05-12T11:44:47.894Z,96395.00
2019-05-12T11:47:24.132Z,96388.00
2019-05-12T11:49:49.746Z,96402.00
2019-05-12T11:52:19.831Z,96402.00
2019-05-12T11:54:53.634Z,96408.00
2019-05-12T11:57:26.221Z,96400.00
2019-05-12T12:00:01.445Z,96409.00
2019-05-12T12:02:30.409Z,96421.00
2019-05-12T12:04:58.478Z,96414.00
2019-05-12T12:07:28.488Z,96415.00
2019-05-12T12:09:59.561Z,96414.00
2019-05-12T12:12:29.713Z,96413.00
2019-05-12T12:14:59.625Z,96424.00
2019-05-12T12:17:32.608Z,96429.00
2019-05-12T12:20:03.667Z,96430.00
2019-05-12T12:22:43.544Z,96440.00
2019-05-12T12:25:15.627Z,96437.00
2019-05-12T12:27:46.278Z,96432.00
2019-05-12T12:30:19.974Z,96442.00
2019-05-12T12:32:50.343Z,96442.00
2019-05-12T12:35:20.429Z,96450.00
2019-05-12T12:37:50.630Z,96450.00
2019-05-12T12:40:20.772Z,96454.00
2019-05-12T12:42:50.726Z,96444.00
2019-05-12T12:45:30.324Z,96450.00
2019-05-12T12:48:01.014Z,96462.00
2019-05-12T12:50:31.120Z,96451.00
2019-05-12T12:53:01.281Z,96458.00
2019-05-12T12:55:31.349Z,96468.00
2019-05-12T12:58:03.314Z,96462.00
2019-05-12T13:00:46.762Z,96463.00
2019-05-12T13:03:05.494Z,96463.00
2019-05-12T13:05:35.674Z,96470.00
2019-05-12T13:08:05.823Z,96462.00
2019-05-12T13:10:40.562Z,96460.00
2019-05-12T13:13:07.674Z,96464.00
2019-05-12T13:15:37.735Z,96471.00
2019-05-12T13:18:09.291Z,96473.00
2019-05-12T13:20:39.308Z,96473.00
2019-05-12T13:23:09.489Z,96470.00
2019-05-12T13:25:50.047Z,96464.00
2019-05-12T13:28:18.641Z,96473.00
2019-05-12T13:30:48.786Z,96472.00
2019-05-12T13:33:18.417Z,96483.00
2019-05-12T13:35:50.361Z,96476.00
2019-05-12T13:38:20.351Z,96464.00
2019-05-12T13:40:50.267Z,96483.00
2019-05-12T13:43:20.333Z,96473.00
2019-05-12T13:45:50.412Z,96480.00
2019-05-12T13:48:20.338Z,96477.00
2019-05-12T13:50:50.246Z,96464.00
2019-05-12T13:53:20.197Z,96472.00
2019-05-12T13:55:50.307Z,96475.00
2019-05-12T13:58:20.324Z,96483.00
2019-05-12T14:01:09.263Z,96477.00
2019-05-12T14:03:22.006Z,96489.00
2019-05-12T14:05:53.069Z,96483.00
2019-05-12T14:08:23.904Z,96491.00
2019-05-12T14:10:59.195Z,96480.00
2019-05-12T14:13:25.670Z,96501.00
2019-05-12T14:15:55.732Z,96493.00
2019-05-12T14:18:25.681Z,96502.00
2019-05-12T14:21:00.227Z,96508.00
2019-05-12T14:23:27.496Z,96511.00
2019-05-12T14:26:02.348Z,96503.00
2019-05-12T14:28:29.163Z,96510.00
2019-05-12T14:30:59.096Z,96513.00
2019-05-12T14:33:29.881Z,96517.00
2019-05-12T14:36:00.749Z,96526.00
2019-05-12T14:38:30.684Z,96521.00
2019-05-12T14:41:01.228Z,96524.00
2019-05-12T14:43:34.094Z,96528.00
2019-05-12T14:46:06.363Z,96528.00
2019-05-12T14:48:40.358Z,96526.00
2019-05-12T14:51:07.740Z,96525.00
2019-05-12T14:53:38.792Z,96529.00
2019-05-12T14:56:09.405Z,96534.00
2019-05-12T14:58:39.441Z,96525.00
2019-05-12T15:01:48.463Z,96521.00
2019-05-12T15:04:00.264Z,96530.00
2019-05-12T15:06:30.273Z,96523.00
2019-05-12T15:09:00.272Z,96528.00
2019-05-12T15:11:30.276Z,96530.00
2019-05-12T15:14:00.232Z,96527.00
2019-05-12T15:16:31.698Z,96522.00
2019-05-12T15:19:03.412Z,96532.00
2019-05-12T15:21:34.084Z,96530.00
2019-05-12T15:24:09.188Z,96531.00
2019-05-12T15:26:36.084Z,96539.00
2019-05-12T15:29:13.385Z,96534.00
2019-05-12T15:31:37.903Z,96532.00
2019-05-12T15:34:07.959Z,96544.00
2019-05-12T15:36:43.623Z,96550.00
2019-05-12T15:39:10.149Z,96535.00
2019-05-12T15:41:40.233Z,96555.00
2019-05-12T15:44:10.353Z,96546.00
2019-05-12T15:46:43.481Z,96554.00
2019-05-12T15:49:12.129Z,96547.00
2019-05-12T15:51:53.109Z,96556.00
2019-05-12T15:54:14.594Z,96558.00
2019-05-12T15:56:46.489Z,96547.00
2019-05-12T15:59:17.501Z,96568.00
2019-05-12T16:01:48.516Z,96566.00
2019-05-12T16:04:18.442Z,96565.00
2019-05-12T16:06:53.375Z,96569.00
2019-05-12T16:09:20.305Z,96561.00
2019-05-12T16:11:51.421Z,96573.00
2019-05-12T16:14:23.356Z,96577.00
2019-05-12T16:16:53.634Z,96575.00
2019-05-12T16:19:26.455Z,96577.00
2019-05-12T16:21:55.451Z,96588.00
2019-05-12T16:24:27.334Z,96587.00
2019-05-12T16:26:57.309Z,96598.00
2019-05-12T16:29:27.377Z,96598.00
2019-05-12T16:31:57.489Z,96593.00
2019-05-12T16:34:27.587Z,96585.00
2019-05-12T16:36:57.604Z,96592.00
2019-05-12T16:39:30.404Z,96594.00
2019-05-12T16:42:00.148Z,96587.00
2019-05-12T16:44:31.589Z,96592.00
2019-05-12T16:47:04.126Z,96592.00
2019-05-12T16:49:34.722Z,96600.00
2019-05-12T16:52:05.380Z,96603.00
2019-05-12T16:54:35.645Z,96606.00
2019-05-12T16:57:11.682Z,96604.00
2019-05-12T16:59:37.463Z,96613.00
2019-05-12T17:02:09.843Z,96614.00
2019-05-12T17:04:39.594Z,96614.00
2019-05-12T17:07:17.278Z,96620.00
2019-05-12T17:09:43.377Z,96622.00
2019-05-12T17:12:14.729Z,96624.00
2019-05-12T17:14:49.900Z,96623.00
2019-05-12T17:17:16.936Z,96624.00
2019-05-12T17:19:46.843Z,96631.00
2019-05-12T17:22:17.665Z,96636.00
2019-05-12T17:24:47.816Z,96635.00
2019-05-12T17:27:23.947Z,96643.00
2019-05-12T17:29:49.767Z,96648.00
2019-05-12T17:32:19.781Z,96650.00
2019-05-12T17:34:49.925Z,96661.00
2019-05-12T17:37:20.082Z,96660.00
2019-05-12T17:39:50.070Z,96658.00
2019-05-12T17:42:24.036Z,96656.00
2019-05-12T17:44:54.325Z,96653.00
2019-05-12T17:47:26.303Z,96658.00
2019-05-12T17:50:00.445Z,96656.00
2019-05-12T17:52:27.274Z,96658.00
2019-05-12T17:55:04.658Z,96664.00
2019-05-12T17:57:28.934Z,96674.00
2019-05-12T17:59:59.749Z,96676.00
2019-05-12T18:02:30.598Z,96669.00
2019-05-12T18:05:06.513Z,96671.00
2019-05-12T18:07:34.285Z,96679.00
2019-05-12T18:10:06.808Z,96679.00
2019-05-12T18:12:44.449Z,96690.00
2019-05-12T18:15:09.917Z,96683.00
2019-05-12T18:17:45.181Z,96685.00
2019-05-12T18:20:14.451Z,96692.00
2019-05-12T18:22:46.920Z,96691.00
2019-05-12T18:25:16.187Z,96681.00
2019-05-12T18:27:50.482Z,96692.00
2019-05-12T18:30:19.334Z,96690.00
2019-05-12T18:32:54.991Z,96693.00
2019-05-12T18:35:21.865Z,96687.00
2019-05-12T18:37:54.092Z,96693.00
2019-05-12T18:40:25.153Z,96696.00
2019-05-12T18:42:55.371Z,96694.00
2019-05-12T18:45:26.137Z,96685.00
2019-05-12T18:47:56.205Z,96695.00
2019-05-12T18:50:31.329Z,96696.00
2019-05-12T18:52:58.038Z,96700.00
2019-05-12T18:55:29.159Z,96700.00
2019-05-12T18:57:59.927Z,96701.00
2019-05-12T19:00:30.069Z,96715.00
2019-05-12T19:03:06.403Z,96711.00
2019-05-12T19:05:43.704Z,96705.00
2019-05-12T19:08:14.199Z,96710.00
2019-05-12T19:10:48.681Z,96725.00
2019-05-12T19:13:16.298Z,96718.00
2019-05-12T19:15:46.620Z,96722.00
2019-05-12T19:18:18.375Z,96720.00
2019-05-12T19:20:50.556Z,96724.00
2019-05-12T19:23:20.666Z,96726.00
2019-05-12T19:25:51.185Z,96720.00
2019-05-12T19:28:21.227Z,96725.00
2019-05-12T19:30:51.345Z,96721.00
2019-05-12T19:33:21.341Z,96732.00
2019-05-12T19:35:59.744Z,96729.00
2019-05-12T19:38:23.989Z,96740.00
2019-05-12T19:40:56.334Z,96749.00
2019-05-12T19:43:25.855Z,96740.00
2019-05-12T19:46:03.007Z,96750.00
2019-05-12T19:48:27.817Z,96740.00
2019-05-12T19:50:57.922Z,96750.00
2019-05-12T19:53:27.841Z,96753.00
2019-05-12T19:55:57.817Z,96744.00
2019-05-12T19:58:27.775Z,96758.00
2019-05-12T20:00:57.915Z,96763.00
2019-05-12T20:03:27.916Z,96758.00
2019-05-12T20:05:58.066Z,96746.00
2019-05-12T20:08:27.997Z,96758.00
2019-05-12T20:10:58.080Z,96767.00
2019-05-12T20:13:29.457Z,96755.00
2019-05-12T20:15:59.753Z,96749.00
2019-05-12T20:18:34.531Z,96760.00
2019-05-12T20:21:01.611Z,96760.00
2019-05-12T20:23:33.462Z,96758.00
2019-05-12T20:26:03.959Z,96762.00
2019-05-12T20:28:34.586Z,96761.00
2019-05-12T20:31:06.110Z,96767.00
2019-05-12T20:33:36.439Z,96766.00
2019-05-12T20:36:06.579Z,96771.00
2019-05-12T20:38:40.133Z,96775.00
2019-05-12T20:41:10.943Z,96774.00
2019-05-12T20:43:43.612Z,96776.00
2019-05-12T20:46:13.088Z,96784.00
2019-05-12T20:48:44.613Z,96782.00
2019-05-12T20:51:19.969Z,96784.00
2019-05-12T20:53:46.449Z,96787.00
2019-05-12T20:56:20.157Z,96785.00
2019-05-12T20:58:48.011Z,96787.00
2019-05-12T21:01:20.200Z,96782.00
2019-05-12T21:03:50.995Z,96788.00
2019-05-12T21:06:23.515Z,96792.00
2019-05-12T21:08:56.127Z,96797.00
2019-05-12T21:11:24.725Z,96807.00
2019-05-12T21:13:54.776Z,96805.00
2019-05-12T21:16:31.301Z,96795.00
2019-05-12T21:19:07.547Z,96792.00
2019-05-12T21:21:34.203Z,96798.00
2019-05-12T21:23:59.820Z,96798.00
2019-05-12T21:26:34.792Z,96799.00
2019-05-12T21:29:01.538Z,96799.00
2019-05-12T21:31:33.657Z,96796.00
2019-05-12T21:34:06.673Z,96809.00
2019-05-12T21:36:35.826Z,96804.00
2019-05-12T21:39:10.358Z,96798.00
2019-05-12T21:41:45.763Z,96806.00
2019-05-12T21:44:14.124Z,96804.00
2019-05-12T21:46:58.902Z,96817.00
2019-05-12T21:49:15.924Z,96812.00
2019-05-12T21:51:50.380Z,96807.00
2019-05-12T21:54:17.831Z,96812.00
2019-05-12T21:56:49.497Z,96809.00
2019-05-12T21:59:19.435Z,96826.00
2019-05-12T22:01:49.440Z,96813.00
2019-05-12T22:04:19.530Z,96809.00
2019-05-12T22:06:51.187Z,96818.00
2019-05-12T22:09:23.858Z,96832.00
2019-05-12T22:11:54.146Z,96829.00
2019-05-12T22:14:24.851Z,96834.00
2019-05-12T22:16:56.597Z,96827.00
2019-05-12T22:19:30.879Z,96828.00
2019-05-12T22:22:01.008Z,96830.00
2019-05-12T22:24:37.263Z,96836.00
2019-05-12T22:27:04.853Z,96835.00
2019-05-12T22:29:34.293Z,96824.00
2019-05-12T22:32:05.295Z,96831.00
2019-05-12T22:34:41.638Z,96829.00
2019-05-12T22:37:07.452Z,96830.00
2019-05-12T22:39:37.466Z,96830.00
2019-05-12T22:42:11.662Z,96830.00
2019-05-12T22:44:39.268Z,96825.00
2019-05-12T22:47:16.265Z,96827.00
2019-05-12T22:49:41.546Z,96830.00
2019-05-12T22:52:13.415Z,96818.00
2019-05-12T22:54:48.950Z,96834.00
2019-05-12T22:57:15.043Z,96829.00
2019-05-12T22:59:45.045Z,96840.00
2019-05-12T23:02:24.190Z,96828.00
2019-05-12T23:04:46.877Z,96826.00
2019-05-12T23:07:19.082Z,96834.00
2019-05-12T23:09:48.758Z,96836.00
2019-05-12T23:12:20.271Z,96837.00
2019-05-12T23:14:54.171Z,96839.00
2019-05-12T23:17:24.454Z,96842.00
2019-05-12T23:19:55.816Z,96837.00
2019-05-12T23:22:29.457Z,96837.00
2019-05-12T23:24:57.583Z,96833.00
2019-05-12T23:27:29.893Z,96828.00
2019-05-12T23:30:01.431Z,96827.00
2019-05-12T23:32:31.002Z,96830.00
2019-05-12T23:35:00.922Z,96834.00
2019-05-12T23:37:38.413Z,96818.00
2019-05-12T23:40:04.363Z,96819.00
2019-05-12T23:42:34.598Z,96834.00
2019-05-12T23:45:05.053Z,96821.00
2019-05-12T23:47:35.208Z,96823.00
2019-05-12T23:50:06.587Z,96829.00
2019-05-12T23:52:36.582Z,96820.00
2019-05-12T23:55:08.451Z,96819.00
2019-05-12T23:57:38.449Z,96819.00
